Flight Track Log - Related Links

Times and Time Zones

All times are in EDT time to prevent confusion due to time zone crossing. See the ASH2846 flight status page for this flight to view local times or setup timezone preferences in your user account.

Time Position Orientation Groundspeed Altitude Reporting Facility
EDT Latitude Longitude Course Direction KTS MPH feet Rate Location/Type
Mon 10:09:15 AM 32.0937 -110.9271 129° Southeast  Level FlightAware Approximate
Mon 10:10:24 AM 32.0611 -110.8794 108° East 214 246 5,100  Level Albuquerque Center
Mon 10:11:25 AM 32.0422 -110.8128 North 243 280 7,600 2,296 Climbing Albuquerque Center
Mon 10:12:19 AM 32.1069 -110.8103 337° Northwest 274 315 9,500 2,035 Climbing Albuquerque Center
Mon 10:13:20 AM 32.1850 -110.8503 338° Northwest 319 367 11,500 2,113 Climbing Albuquerque Center
Mon 10:14:41 AM 32.3106 -110.9117 335° Northwest 352 405 14,500 1,957 Climbing Albuquerque Center
Mon 10:15:41 AM 32.4008 -110.9622 333° Northwest 362 417 16,100 800 Climbing Albuquerque Center
Mon 10:16:41 AM 32.4950 -111.0203 328° Northwest 362 417 16,100  Level Albuquerque Center
Mon 10:17:41 AM 32.5886 -111.0908 329° Northwest 372 428 16,100 -50 Level Albuquerque Center
Mon 10:18:41 AM 32.6825 -111.1589 326° Northwest 387 445 16,000 -50 Descending Albuquerque Center
Mon 10:19:41 AM 32.7739 -111.2322 329° Northwest 394 453 16,000 -400 Level Albuquerque Center
Mon 10:20:41 AM 32.8575 -111.2928 328° Northwest 394 453 15,200 -1,050 Descending Albuquerque Center
Mon 10:21:41 AM 32.9389 -111.3533 324° Northwest 376 433 13,900 -1,200 Descending Albuquerque Center
Mon 10:22:41 AM 33.0058 -111.4111 302° West 334 384 12,800 -1,100 Descending Albuquerque Center
Mon 10:23:41 AM 33.0489 -111.4922 302° West 296 341 11,700 -866 Descending Albuquerque Center
Mon 10:25:55 AM 33.1500 -111.6833 292° West 290 334 10,000 -510 Descending Phoenix TRACON
Mon 10:27:01 AM 33.1833 -111.7833 312° West 290 334 10,000  Level Phoenix TRACON
Mon 10:28:07 AM 33.2333 -111.8500 306° West 258 297 10,000  Level Phoenix TRACON
Mon 10:29:07 AM 33.2833 -111.9333 309° West 271 312 10,000  Level Phoenix TRACON
Mon 10:29:56 AM 33.3167 -111.9833 328° Northwest 288 331 10,000 -330 Level Phoenix TRACON
Mon 10:30:56 AM 33.3833 -112.0333 351° North 288 331 9,400 -1,000 Descending Phoenix TRACON
Mon 10:31:56 AM 33.4667 -112.0500 331° Northwest 284 327 8,000 -900 Descending Phoenix TRACON
Mon 10:32:56 AM 33.5167 -112.0833 270° West 206 237 7,600 -1,045 Descending Phoenix TRACON
Mon 10:34:08 AM 33.5167 -112.1667 270° West 188 216 5,700 -1,583 Descending Phoenix TRACON

Login

Don't have an account? Register now (free) for customized features, flight alerts, and more!